sensor_id;sensor_type;location;lat;lon;timestamp;P1;durP1;ratioP1;P2;durP2;ratioP2
25581;SDS011;13462;50.764;4.332;2023-12-20T00:00:57;7.63;;;2.05;;
25581;SDS011;13462;50.764;4.332;2023-12-20T00:03:22;10.50;;;2.80;;
25581;SDS011;13462;50.764;4.332;2023-12-20T00:05:49;6.82;;;2.38;;
25581;SDS011;13462;50.764;4.332;2023-12-20T00:08:14;7.25;;;2.75;;
25581;SDS011;13462;50.764;4.332;2023-12-20T00:10:40;9.68;;;2.70;;
25581;SDS011;13462;50.764;4.332;2023-12-20T00:13:05;7.65;;;2.20;;
25581;SDS011;13462;50.764;4.332;2023-12-20T00:15:32;20.27;;;5.60;;
25581;SDS011;13462;50.764;4.332;2023-12-20T00:17:58;7.47;;;3.05;;
25581;SDS011;13462;50.764;4.332;2023-12-20T00:20:24;13.73;;;3.08;;
25581;SDS011;13462;50.764;4.332;2023-12-20T00:22:50;9.10;;;3.60;;
25581;SDS011;13462;50.764;4.332;2023-12-20T00:25:15;15.50;;;3.10;;
25581;SDS011;13462;50.764;4.332;2023-12-20T00:27:41;17.42;;;4.32;;
25581;SDS011;13462;50.764;4.332;2023-12-20T00:30:07;15.95;;;2.88;;
25581;SDS011;13462;50.764;4.332;2023-12-20T00:32:34;22.25;;;4.30;;
25581;SDS011;13462;50.764;4.332;2023-12-20T00:35:00;12.52;;;3.72;;
25581;SDS011;13462;50.764;4.332;2023-12-20T00:37:26;11.90;;;2.53;;
25581;SDS011;13462;50.764;4.332;2023-12-20T00:39:52;11.60;;;2.67;;
25581;SDS011;13462;50.764;4.332;2023-12-20T00:42:17;23.52;;;2.70;;
25581;SDS011;13462;50.764;4.332;2023-12-20T00:44:43;9.18;;;2.90;;
25581;SDS011;13462;50.764;4.332;2023-12-20T00:47:08;10.43;;;3.08;;
25581;SDS011;13462;50.764;4.332;2023-12-20T00:49:34;14.93;;;3.42;;
25581;SDS011;13462;50.764;4.332;2023-12-20T00:52:00;13.30;;;3.25;;
25581;SDS011;13462;50.764;4.332;2023-12-20T00:54:25;17.30;;;2.90;;
25581;SDS011;13462;50.764;4.332;2023-12-20T00:56:51;10.20;;;3.50;;
25581;SDS011;13462;50.764;4.332;2023-12-20T00:59:16;9.55;;;3.60;;
25581;SDS011;13462;50.764;4.332;2023-12-20T01:01:43;14.82;;;3.30;;
25581;SDS011;13462;50.764;4.332;2023-12-20T01:04:08;12.57;;;5.18;;
25581;SDS011;13462;50.764;4.332;2023-12-20T01:06:35;8.80;;;3.00;;
25581;SDS011;13462;50.764;4.332;2023-12-20T01:09:00;11.13;;;3.17;;
25581;SDS011;13462;50.764;4.332;2023-12-20T01:11:26;16.30;;;3.78;;
25581;SDS011;13462;50.764;4.332;2023-12-20T01:13:51;11.30;;;3.20;;
25581;SDS011;13462;50.764;4.332;2023-12-20T01:16:17;10.82;;;3.38;;
25581;SDS011;13462;50.764;4.332;2023-12-20T01:18:42;13.50;;;3.55;;
25581;SDS011;13462;50.764;4.332;2023-12-20T01:21:08;20.00;;;3.70;;
25581;SDS011;13462;50.764;4.332;2023-12-20T01:23:34;15.20;;;5.30;;
25581;SDS011;13462;50.764;4.332;2023-12-20T01:26:02;19.85;;;3.92;;
25581;SDS011;13462;50.764;4.332;2023-12-20T01:28:29;20.70;;;3.85;;
25581;SDS011;13462;50.764;4.332;2023-12-20T01:30:55;20.65;;;3.08;;
25581;SDS011;13462;50.764;4.332;2023-12-20T01:33:20;11.80;;;3.58;;
25581;SDS011;13462;50.764;4.332;2023-12-20T01:35:46;13.48;;;3.20;;
25581;SDS011;13462;50.764;4.332;2023-12-20T01:38:12;15.40;;;3.47;;
25581;SDS011;13462;50.764;4.332;2023-12-20T01:40:37;15.70;;;3.45;;
25581;SDS011;13462;50.764;4.332;2023-12-20T01:43:07;12.60;;;3.53;;
25581;SDS011;13462;50.764;4.332;2023-12-20T01:45:34;21.70;;;3.80;;
25581;SDS011;13462;50.764;4.332;2023-12-20T01:47:59;15.95;;;3.08;;
25581;SDS011;13462;50.764;4.332;2023-12-20T01:50:27;11.35;;;3.78;;
25581;SDS011;13462;50.764;4.332;2023-12-20T01:52:54;14.75;;;3.42;;
25581;SDS011;13462;50.764;4.332;2023-12-20T01:55:22;17.00;;;4.00;;
25581;SDS011;13462;50.764;4.332;2023-12-20T01:57:49;18.52;;;3.88;;
25581;SDS011;13462;50.764;4.332;2023-12-20T02:00:16;22.38;;;4.00;;
25581;SDS011;13462;50.764;4.332;2023-12-20T02:02:43;17.95;;;3.72;;
25581;SDS011;13462;50.764;4.332;2023-12-20T02:05:10;11.88;;;3.60;;
25581;SDS011;13462;50.764;4.332;2023-12-20T02:07:36;15.35;;;3.92;;
25581;SDS011;13462;50.764;4.332;2023-12-20T02:10:02;20.98;;;4.32;;
25581;SDS011;13462;50.764;4.332;2023-12-20T02:12:30;22.85;;;4.85;;
25581;SDS011;13462;50.764;4.332;2023-12-20T02:14:56;23.98;;;4.47;;
25581;SDS011;13462;50.764;4.332;2023-12-20T02:17:22;19.02;;;4.25;;
25581;SDS011;13462;50.764;4.332;2023-12-20T02:19:48;17.15;;;5.00;;
25581;SDS011;13462;50.764;4.332;2023-12-20T02:22:14;12.75;;;4.30;;
25581;SDS011;13462;50.764;4.332;2023-12-20T02:24:40;20.00;;;4.97;;
25581;SDS011;13462;50.764;4.332;2023-12-20T02:27:06;19.70;;;4.68;;
25581;SDS011;13462;50.764;4.332;2023-12-20T02:29:33;17.83;;;4.28;;
25581;SDS011;13462;50.764;4.332;2023-12-20T02:31:59;16.95;;;4.93;;
25581;SDS011;13462;50.764;4.332;2023-12-20T02:34:24;19.77;;;4.30;;
25581;SDS011;13462;50.764;4.332;2023-12-20T02:36:50;17.58;;;5.28;;
25581;SDS011;13462;50.764;4.332;2023-12-20T02:39:16;24.17;;;5.63;;
25581;SDS011;13462;50.764;4.332;2023-12-20T02:41:41;22.55;;;6.05;;
25581;SDS011;13462;50.764;4.332;2023-12-20T02:44:07;13.57;;;4.68;;
25581;SDS011;13462;50.764;4.332;2023-12-20T02:46:33;18.13;;;5.45;;
25581;SDS011;13462;50.764;4.332;2023-12-20T02:48:58;24.45;;;5.55;;
25581;SDS011;13462;50.764;4.332;2023-12-20T02:51:24;21.10;;;5.75;;
25581;SDS011;13462;50.764;4.332;2023-12-20T02:53:49;19.77;;;6.22;;
25581;SDS011;13462;50.764;4.332;2023-12-20T02:56:15;18.17;;;6.78;;
25581;SDS011;13462;50.764;4.332;2023-12-20T02:58:41;19.92;;;6.40;;
25581;SDS011;13462;50.764;4.332;2023-12-20T03:01:06;16.95;;;5.72;;
25581;SDS011;13462;50.764;4.332;2023-12-20T03:03:32;18.70;;;5.50;;
25581;SDS011;13462;50.764;4.332;2023-12-20T03:05:58;18.40;;;5.38;;
25581;SDS011;13462;50.764;4.332;2023-12-20T03:08:23;20.92;;;5.38;;
25581;SDS011;13462;50.764;4.332;2023-12-20T03:10:49;14.73;;;5.57;;
25581;SDS011;13462;50.764;4.332;2023-12-20T03:13:15;27.75;;;5.93;;
25581;SDS011;13462;50.764;4.332;2023-12-20T03:15:40;21.98;;;7.55;;
25581;SDS011;13462;50.764;4.332;2023-12-20T03:18:06;29.58;;;7.80;;
25581;SDS011;13462;50.764;4.332;2023-12-20T03:20:32;18.10;;;5.55;;
25581;SDS011;13462;50.764;4.332;2023-12-20T03:22:59;19.30;;;5.60;;
25581;SDS011;13462;50.764;4.332;2023-12-20T03:25:25;18.90;;;5.82;;
25581;SDS011;13462;50.764;4.332;2023-12-20T03:27:51;22.63;;;5.30;;
25581;SDS011;13462;50.764;4.332;2023-12-20T03:30:17;22.38;;;5.20;;
25581;SDS011;13462;50.764;4.332;2023-12-20T03:32:43;24.05;;;5.90;;
25581;SDS011;13462;50.764;4.332;2023-12-20T03:35:09;24.45;;;5.30;;
25581;SDS011;13462;50.764;4.332;2023-12-20T03:37:35;16.48;;;5.72;;
25581;SDS011;13462;50.764;4.332;2023-12-20T03:40:01;23.48;;;5.78;;
25581;SDS011;13462;50.764;4.332;2023-12-20T03:42:27;29.83;;;6.65;;
25581;SDS011;13462;50.764;4.332;2023-12-20T03:44:52;20.40;;;5.60;;
25581;SDS011;13462;50.764;4.332;2023-12-20T03:47:18;15.55;;;5.22;;
25581;SDS011;13462;50.764;4.332;2023-12-20T03:49:43;19.80;;;5.05;;
25581;SDS011;13462;50.764;4.332;2023-12-20T03:52:09;14.43;;;4.93;;
25581;SDS011;13462;50.764;4.332;2023-12-20T03:54:35;17.30;;;5.90;;
25581;SDS011;13462;50.764;4.332;2023-12-20T03:57:00;23.17;;;5.75;;
25581;SDS011;13462;50.764;4.332;2023-12-20T03:59:26;19.05;;;5.25;;
25581;SDS011;13462;50.764;4.332;2023-12-20T04:01:52;22.90;;;5.10;;
25581;SDS011;13462;50.764;4.332;2023-12-20T04:04:17;13.18;;;4.45;;
25581;SDS011;13462;50.764;4.332;2023-12-20T04:06:44;14.30;;;4.93;;
25581;SDS011;13462;50.764;4.332;2023-12-20T04:09:09;15.55;;;4.60;;
25581;SDS011;13462;50.764;4.332;2023-12-20T04:11:36;21.38;;;4.25;;
25581;SDS011;13462;50.764;4.332;2023-12-20T04:14:01;22.15;;;4.43;;
25581;SDS011;13462;50.764;4.332;2023-12-20T04:16:27;18.35;;;5.10;;
25581;SDS011;13462;50.764;4.332;2023-12-20T04:18:53;17.80;;;4.43;;
25581;SDS011;13462;50.764;4.332;2023-12-20T04:21:18;15.90;;;4.50;;
25581;SDS011;13462;50.764;4.332;2023-12-20T04:23:44;18.58;;;4.45;;
25581;SDS011;13462;50.764;4.332;2023-12-20T04:26:10;16.63;;;4.70;;
25581;SDS011;13462;50.764;4.332;2023-12-20T04:28:35;12.82;;;3.63;;
25581;SDS011;13462;50.764;4.332;2023-12-20T04:31:01;16.67;;;4.45;;
25581;SDS011;13462;50.764;4.332;2023-12-20T04:33:27;17.05;;;4.70;;
25581;SDS011;13462;50.764;4.332;2023-12-20T04:35:52;16.70;;;4.68;;
25581;SDS011;13462;50.764;4.332;2023-12-20T04:38:18;16.80;;;4.47;;
25581;SDS011;13462;50.764;4.332;2023-12-20T04:40:44;17.35;;;4.38;;
25581;SDS011;13462;50.764;4.332;2023-12-20T04:43:09;19.50;;;4.82;;
25581;SDS011;13462;50.764;4.332;2023-12-20T04:45:35;14.30;;;5.38;;
25581;SDS011;13462;50.764;4.332;2023-12-20T04:48:01;13.30;;;4.55;;
25581;SDS011;13462;50.764;4.332;2023-12-20T04:50:27;15.38;;;5.18;;
25581;SDS011;13462;50.764;4.332;2023-12-20T04:52:53;12.68;;;4.10;;
25581;SDS011;13462;50.764;4.332;2023-12-20T04:55:19;19.73;;;4.80;;
25581;SDS011;13462;50.764;4.332;2023-12-20T04:57:45;18.98;;;4.55;;
25581;SDS011;13462;50.764;4.332;2023-12-20T05:00:10;15.77;;;4.80;;
25581;SDS011;13462;50.764;4.332;2023-12-20T05:02:37;15.10;;;4.00;;
25581;SDS011;13462;50.764;4.332;2023-12-20T05:05:03;19.13;;;4.50;;
25581;SDS011;13462;50.764;4.332;2023-12-20T05:07:28;21.23;;;5.20;;
25581;SDS011;13462;50.764;4.332;2023-12-20T05:09:54;19.38;;;4.82;;
25581;SDS011;13462;50.764;4.332;2023-12-20T05:12:19;19.98;;;4.63;;
25581;SDS011;13462;50.764;4.332;2023-12-20T05:14:45;13.07;;;3.88;;
25581;SDS011;13462;50.764;4.332;2023-12-20T05:17:11;30.45;;;5.45;;
25581;SDS011;13462;50.764;4.332;2023-12-20T05:19:37;21.80;;;4.82;;
25581;SDS011;13462;50.764;4.332;2023-12-20T05:22:03;15.82;;;4.47;;
25581;SDS011;13462;50.764;4.332;2023-12-20T05:24:28;22.70;;;4.95;;
25581;SDS011;13462;50.764;4.332;2023-12-20T05:26:54;11.13;;;4.28;;
25581;SDS011;13462;50.764;4.332;2023-12-20T05:29:20;13.02;;;3.72;;
25581;SDS011;13462;50.764;4.332;2023-12-20T05:31:45;18.83;;;5.80;;
25581;SDS011;13462;50.764;4.332;2023-12-20T05:34:11;18.48;;;4.30;;
25581;SDS011;13462;50.764;4.332;2023-12-20T05:36:37;17.38;;;4.90;;
25581;SDS011;13462;50.764;4.332;2023-12-20T05:39:03;14.02;;;4.05;;
25581;SDS011;13462;50.764;4.332;2023-12-20T05:41:30;15.93;;;3.90;;
25581;SDS011;13462;50.764;4.332;2023-12-20T05:43:56;17.17;;;4.63;;
25581;SDS011;13462;50.764;4.332;2023-12-20T05:46:23;14.00;;;3.80;;
25581;SDS011;13462;50.764;4.332;2023-12-20T05:48:49;16.20;;;4.43;;
25581;SDS011;13462;50.764;4.332;2023-12-20T05:51:16;11.80;;;3.38;;
25581;SDS011;13462;50.764;4.332;2023-12-20T05:53:42;20.52;;;4.10;;
25581;SDS011;13462;50.764;4.332;2023-12-20T05:56:09;13.55;;;4.25;;
25581;SDS011;13462;50.764;4.332;2023-12-20T05:58:35;23.50;;;6.07;;
25581;SDS011;13462;50.764;4.332;2023-12-20T06:01:03;22.98;;;4.80;;
25581;SDS011;13462;50.764;4.332;2023-12-20T06:03:29;12.50;;;4.07;;
25581;SDS011;13462;50.764;4.332;2023-12-20T06:05:55;12.85;;;4.20;;
25581;SDS011;13462;50.764;4.332;2023-12-20T06:08:21;22.77;;;4.68;;
25581;SDS011;13462;50.764;4.332;2023-12-20T06:10:46;21.25;;;4.50;;
25581;SDS011;13462;50.764;4.332;2023-12-20T06:13:12;15.00;;;4.03;;
25581;SDS011;13462;50.764;4.332;2023-12-20T06:15:39;19.92;;;4.72;;
25581;SDS011;13462;50.764;4.332;2023-12-20T06:18:05;16.70;;;4.05;;
25581;SDS011;13462;50.764;4.332;2023-12-20T06:20:31;11.60;;;3.42;;
25581;SDS011;13462;50.764;4.332;2023-12-20T06:22:57;17.13;;;4.45;;
25581;SDS011;13462;50.764;4.332;2023-12-20T06:25:23;20.52;;;4.72;;
25581;SDS011;13462;50.764;4.332;2023-12-20T06:27:48;10.80;;;3.65;;
25581;SDS011;13462;50.764;4.332;2023-12-20T06:30:15;19.85;;;4.50;;
25581;SDS011;13462;50.764;4.332;2023-12-20T06:32:40;17.52;;;4.20;;
25581;SDS011;13462;50.764;4.332;2023-12-20T06:35:07;14.27;;;4.40;;
25581;SDS011;13462;50.764;4.332;2023-12-20T06:37:33;16.67;;;4.43;;
25581;SDS011;13462;50.764;4.332;2023-12-20T06:39:59;16.85;;;4.13;;
25581;SDS011;13462;50.764;4.332;2023-12-20T06:42:25;18.85;;;3.83;;
25581;SDS011;13462;50.764;4.332;2023-12-20T06:44:50;15.60;;;3.53;;
25581;SDS011;13462;50.764;4.332;2023-12-20T06:47:16;14.40;;;4.32;;
25581;SDS011;13462;50.764;4.332;2023-12-20T06:49:42;15.52;;;4.10;;
25581;SDS011;13462;50.764;4.332;2023-12-20T06:52:07;18.27;;;4.07;;
25581;SDS011;13462;50.764;4.332;2023-12-20T06:54:33;16.10;;;3.70;;
25581;SDS011;13462;50.764;4.332;2023-12-20T06:56:59;10.05;;;3.35;;
25581;SDS011;13462;50.764;4.332;2023-12-20T06:59:25;14.65;;;3.85;;
25581;SDS011;13462;50.764;4.332;2023-12-20T07:01:51;18.67;;;4.18;;
25581;SDS011;13462;50.764;4.332;2023-12-20T07:04:17;14.00;;;4.05;;
25581;SDS011;13462;50.764;4.332;2023-12-20T07:06:47;17.10;;;3.60;;
25581;SDS011;13462;50.764;4.332;2023-12-20T07:09:13;13.85;;;3.22;;
25581;SDS011;13462;50.764;4.332;2023-12-20T07:11:39;17.08;;;3.83;;
25581;SDS011;13462;50.764;4.332;2023-12-20T07:14:05;11.43;;;3.42;;
25581;SDS011;13462;50.764;4.332;2023-12-20T07:16:30;19.05;;;4.97;;
25581;SDS011;13462;50.764;4.332;2023-12-20T07:18:56;15.52;;;3.50;;
25581;SDS011;13462;50.764;4.332;2023-12-20T07:21:22;17.42;;;3.70;;
25581;SDS011;13462;50.764;4.332;2023-12-20T07:23:48;19.13;;;4.53;;
25581;SDS011;13462;50.764;4.332;2023-12-20T07:26:14;15.95;;;3.65;;
25581;SDS011;13462;50.764;4.332;2023-12-20T07:28:40;17.08;;;3.90;;
25581;SDS011;13462;50.764;4.332;2023-12-20T07:31:06;20.17;;;3.63;;
25581;SDS011;13462;50.764;4.332;2023-12-20T07:33:31;11.38;;;3.28;;
25581;SDS011;13462;50.764;4.332;2023-12-20T07:35:57;15.18;;;4.07;;
25581;SDS011;13462;50.764;4.332;2023-12-20T07:38:24;20.30;;;3.92;;
25581;SDS011;13462;50.764;4.332;2023-12-20T07:40:50;20.55;;;4.65;;
25581;SDS011;13462;50.764;4.332;2023-12-20T07:43:15;18.98;;;3.65;;
25581;SDS011;13462;50.764;4.332;2023-12-20T07:45:41;23.23;;;3.92;;
25581;SDS011;13462;50.764;4.332;2023-12-20T07:48:07;15.82;;;4.10;;
25581;SDS011;13462;50.764;4.332;2023-12-20T07:50:32;12.82;;;4.43;;
25581;SDS011;13462;50.764;4.332;2023-12-20T07:52:58;14.38;;;3.45;;
25581;SDS011;13462;50.764;4.332;2023-12-20T07:55:25;18.13;;;3.88;;
25581;SDS011;13462;50.764;4.332;2023-12-20T07:57:51;11.52;;;3.50;;
25581;SDS011;13462;50.764;4.332;2023-12-20T08:00:17;12.55;;;3.60;;
25581;SDS011;13462;50.764;4.332;2023-12-20T08:02:43;18.17;;;3.03;;
25581;SDS011;13462;50.764;4.332;2023-12-20T08:05:09;24.17;;;4.18;;
25581;SDS011;13462;50.764;4.332;2023-12-20T08:07:35;16.73;;;4.07;;
25581;SDS011;13462;50.764;4.332;2023-12-20T08:10:00;14.45;;;2.80;;
25581;SDS011;13462;50.764;4.332;2023-12-20T08:12:26;9.52;;;3.28;;
25581;SDS011;13462;50.764;4.332;2023-12-20T08:14:53;14.50;;;3.20;;
25581;SDS011;13462;50.764;4.332;2023-12-20T08:17:19;14.10;;;3.58;;
25581;SDS011;13462;50.764;4.332;2023-12-20T08:19:45;13.95;;;3.55;;
25581;SDS011;13462;50.764;4.332;2023-12-20T08:22:10;13.23;;;3.03;;
25581;SDS011;13462;50.764;4.332;2023-12-20T08:24:36;17.00;;;3.47;;
25581;SDS011;13462;50.764;4.332;2023-12-20T08:27:03;20.52;;;4.07;;
25581;SDS011;13462;50.764;4.332;2023-12-20T08:29:29;12.25;;;3.13;;
25581;SDS011;13462;50.764;4.332;2023-12-20T08:31:55;19.92;;;3.67;;
25581;SDS011;13462;50.764;4.332;2023-12-20T08:34:21;15.27;;;4.50;;
25581;SDS011;13462;50.764;4.332;2023-12-20T08:36:48;26.33;;;4.10;;
25581;SDS011;13462;50.764;4.332;2023-12-20T08:39:16;22.20;;;3.78;;
25581;SDS011;13462;50.764;4.332;2023-12-20T08:41:41;21.45;;;3.38;;
25581;SDS011;13462;50.764;4.332;2023-12-20T08:44:07;14.43;;;3.28;;
25581;SDS011;13462;50.764;4.332;2023-12-20T08:46:33;11.27;;;3.28;;
25581;SDS011;13462;50.764;4.332;2023-12-20T08:48:59;14.70;;;3.58;;
25581;SDS011;13462;50.764;4.332;2023-12-20T08:51:25;17.58;;;3.97;;
25581;SDS011;13462;50.764;4.332;2023-12-20T08:53:51;14.77;;;3.80;;
25581;SDS011;13462;50.764;4.332;2023-12-20T08:56:17;14.75;;;3.20;;
25581;SDS011;13462;50.764;4.332;2023-12-20T08:58:43;10.60;;;3.25;;
25581;SDS011;13462;50.764;4.332;2023-12-20T09:01:09;11.98;;;3.42;;
25581;SDS011;13462;50.764;4.332;2023-12-20T09:03:35;12.30;;;3.55;;
25581;SDS011;13462;50.764;4.332;2023-12-20T09:06:01;12.60;;;3.42;;
25581;SDS011;13462;50.764;4.332;2023-12-20T09:08:26;11.57;;;2.90;;
25581;SDS011;13462;50.764;4.332;2023-12-20T09:10:52;20.17;;;4.43;;
25581;SDS011;13462;50.764;4.332;2023-12-20T09:13:18;19.13;;;4.18;;
25581;SDS011;13462;50.764;4.332;2023-12-20T09:15:43;20.85;;;4.57;;
25581;SDS011;13462;50.764;4.332;2023-12-20T09:18:09;11.50;;;3.50;;
25581;SDS011;13462;50.764;4.332;2023-12-20T09:20:35;13.07;;;3.42;;
25581;SDS011;13462;50.764;4.332;2023-12-20T09:23:00;10.98;;;3.20;;
25581;SDS011;13462;50.764;4.332;2023-12-20T09:25:26;19.42;;;3.17;;
25581;SDS011;13462;50.764;4.332;2023-12-20T09:27:52;14.23;;;3.60;;
25581;SDS011;13462;50.764;4.332;2023-12-20T09:30:18;7.80;;;2.95;;
25581;SDS011;13462;50.764;4.332;2023-12-20T09:32:45;9.82;;;3.25;;
25581;SDS011;13462;50.764;4.332;2023-12-20T09:35:10;14.93;;;5.15;;
25581;SDS011;13462;50.764;4.332;2023-12-20T09:37:36;8.40;;;3.13;;
25581;SDS011;13462;50.764;4.332;2023-12-20T09:40:02;13.30;;;3.05;;
25581;SDS011;13462;50.764;4.332;2023-12-20T09:43:11;9.05;;;2.53;;
25581;SDS011;13462;50.764;4.332;2023-12-20T09:45:20;13.38;;;3.67;;
25581;SDS011;13462;50.764;4.332;2023-12-20T09:47:52;12.43;;;3.70;;
25581;SDS011;13462;50.764;4.332;2023-12-20T09:50:22;7.30;;;2.63;;
25581;SDS011;13462;50.764;4.332;2023-12-20T09:52:49;21.17;;;3.08;;
25581;SDS011;13462;50.764;4.332;2023-12-20T09:55:19;18.77;;;3.38;;
25581;SDS011;13462;50.764;4.332;2023-12-20T09:57:46;13.25;;;3.50;;
25581;SDS011;13462;50.764;4.332;2023-12-20T10:00:12;11.07;;;2.88;;
25581;SDS011;13462;50.764;4.332;2023-12-20T10:02:42;11.38;;;3.03;;
25581;SDS011;13462;50.764;4.332;2023-12-20T10:05:15;16.10;;;3.08;;
25581;SDS011;13462;50.764;4.332;2023-12-20T10:07:44;15.50;;;3.15;;
25581;SDS011;13462;50.764;4.332;2023-12-20T10:10:10;9.90;;;3.03;;
25581;SDS011;13462;50.764;4.332;2023-12-20T10:12:38;13.68;;;3.25;;
25581;SDS011;13462;50.764;4.332;2023-12-20T10:15:04;11.52;;;3.15;;
25581;SDS011;13462;50.764;4.332;2023-12-20T10:17:30;9.35;;;2.92;;
25581;SDS011;13462;50.764;4.332;2023-12-20T10:19:57;14.10;;;3.08;;
25581;SDS011;13462;50.764;4.332;2023-12-20T10:22:23;12.88;;;3.30;;
25581;SDS011;13462;50.764;4.332;2023-12-20T10:24:49;15.35;;;3.45;;
25581;SDS011;13462;50.764;4.332;2023-12-20T10:27:14;15.85;;;2.97;;
25581;SDS011;13462;50.764;4.332;2023-12-20T10:29:44;16.10;;;3.03;;
25581;SDS011;13462;50.764;4.332;2023-12-20T10:34:49;11.32;;;4.05;;
25581;SDS011;13462;50.764;4.332;2023-12-20T10:37:16;14.73;;;3.70;;
25581;SDS011;13462;50.764;4.332;2023-12-20T10:39:48;7.47;;;2.60;;
25581;SDS011;13462;50.764;4.332;2023-12-20T10:42:27;16.45;;;3.20;;
25581;SDS011;13462;50.764;4.332;2023-12-20T10:44:54;13.48;;;3.03;;
25581;SDS011;13462;50.764;4.332;2023-12-20T10:47:20;16.90;;;3.50;;
25581;SDS011;13462;50.764;4.332;2023-12-20T10:49:46;16.95;;;3.35;;
25581;SDS011;13462;50.764;4.332;2023-12-20T10:52:12;9.27;;;2.80;;
25581;SDS011;13462;50.764;4.332;2023-12-20T10:54:41;13.95;;;3.33;;
25581;SDS011;13462;50.764;4.332;2023-12-20T10:57:07;19.73;;;3.47;;
25581;SDS011;13462;50.764;4.332;2023-12-20T10:59:33;14.63;;;3.33;;
25581;SDS011;13462;50.764;4.332;2023-12-20T11:02:02;16.52;;;3.70;;
25581;SDS011;13462;50.764;4.332;2023-12-20T11:04:52;13.15;;;2.85;;
25581;SDS011;13462;50.764;4.332;2023-12-20T11:07:25;8.77;;;2.60;;
25581;SDS011;13462;50.764;4.332;2023-12-20T11:09:58;13.45;;;3.03;;
25581;SDS011;13462;50.764;4.332;2023-12-20T11:15:00;14.55;;;3.58;;
25581;SDS011;13462;50.764;4.332;2023-12-20T11:17:29;11.70;;;2.63;;
25581;SDS011;13462;50.764;4.332;2023-12-20T11:22:25;18.35;;;3.35;;
25581;SDS011;13462;50.764;4.332;2023-12-20T11:24:53;13.98;;;3.00;;
25581;SDS011;13462;50.764;4.332;2023-12-20T11:27:22;13.73;;;3.20;;
25581;SDS011;13462;50.764;4.332;2023-12-20T11:29:52;14.93;;;2.97;;
25581;SDS011;13462;50.764;4.332;2023-12-20T11:34:51;19.83;;;3.40;;
25581;SDS011;13462;50.764;4.332;2023-12-20T11:37:28;19.27;;;3.42;;
25581;SDS011;13462;50.764;4.332;2023-12-20T11:39:55;12.60;;;4.30;;
25581;SDS011;13462;50.764;4.332;2023-12-20T11:42:21;18.70;;;3.20;;
25581;SDS011;13462;50.764;4.332;2023-12-20T11:44:47;18.02;;;3.38;;
25581;SDS011;13462;50.764;4.332;2023-12-20T11:47:13;11.38;;;3.42;;
25581;SDS011;13462;50.764;4.332;2023-12-20T11:49:40;18.95;;;3.83;;
25581;SDS011;13462;50.764;4.332;2023-12-20T11:52:06;13.35;;;3.33;;
25581;SDS011;13462;50.764;4.332;2023-12-20T11:54:32;10.25;;;3.45;;
25581;SDS011;13462;50.764;4.332;2023-12-20T11:56:57;12.43;;;3.78;;
25581;SDS011;13462;50.764;4.332;2023-12-20T11:59:23;10.85;;;2.67;;
25581;SDS011;13462;50.764;4.332;2023-12-20T12:01:49;8.27;;;3.03;;
25581;SDS011;13462;50.764;4.332;2023-12-20T12:04:15;12.77;;;3.08;;
25581;SDS011;13462;50.764;4.332;2023-12-20T12:06:42;19.73;;;3.38;;
25581;SDS011;13462;50.764;4.332;2023-12-20T12:09:08;12.27;;;3.05;;
25581;SDS011;13462;50.764;4.332;2023-12-20T12:11:34;19.05;;;2.78;;
25581;SDS011;13462;50.764;4.332;2023-12-20T12:13:59;12.57;;;3.10;;
25581;SDS011;13462;50.764;4.332;2023-12-20T12:16:26;10.43;;;2.95;;
25581;SDS011;13462;50.764;4.332;2023-12-20T12:18:58;10.63;;;3.15;;
25581;SDS011;13462;50.764;4.332;2023-12-20T12:21:24;15.60;;;3.25;;
25581;SDS011;13462;50.764;4.332;2023-12-20T12:23:50;14.55;;;2.45;;
25581;SDS011;13462;50.764;4.332;2023-12-20T12:26:15;17.67;;;3.10;;
25581;SDS011;13462;50.764;4.332;2023-12-20T12:28:41;11.45;;;3.00;;
25581;SDS011;13462;50.764;4.332;2023-12-20T12:31:08;13.70;;;3.40;;
25581;SDS011;13462;50.764;4.332;2023-12-20T12:33:37;19.00;;;3.20;;
25581;SDS011;13462;50.764;4.332;2023-12-20T12:36:03;17.65;;;3.80;;
25581;SDS011;13462;50.764;4.332;2023-12-20T12:38:32;17.35;;;3.17;;
25581;SDS011;13462;50.764;4.332;2023-12-20T12:40:57;13.13;;;3.17;;
25581;SDS011;13462;50.764;4.332;2023-12-20T12:43:23;19.10;;;3.38;;
25581;SDS011;13462;50.764;4.332;2023-12-20T12:45:49;12.43;;;3.03;;
25581;SDS011;13462;50.764;4.332;2023-12-20T12:48:15;15.52;;;2.88;;
25581;SDS011;13462;50.764;4.332;2023-12-20T12:50:40;15.32;;;3.67;;
25581;SDS011;13462;50.764;4.332;2023-12-20T12:53:06;12.90;;;2.97;;
25581;SDS011;13462;50.764;4.332;2023-12-20T12:55:32;14.65;;;3.45;;
25581;SDS011;13462;50.764;4.332;2023-12-20T12:57:59;12.55;;;3.45;;
25581;SDS011;13462;50.764;4.332;2023-12-20T13:00:25;9.38;;;2.70;;
25581;SDS011;13462;50.764;4.332;2023-12-20T13:02:51;14.38;;;3.40;;
25581;SDS011;13462;50.764;4.332;2023-12-20T13:05:17;9.50;;;2.83;;
25581;SDS011;13462;50.764;4.332;2023-12-20T13:07:42;13.23;;;2.72;;
25581;SDS011;13462;50.764;4.332;2023-12-20T13:10:10;14.07;;;2.65;;
25581;SDS011;13462;50.764;4.332;2023-12-20T13:12:36;16.50;;;3.90;;
25581;SDS011;13462;50.764;4.332;2023-12-20T13:15:02;19.65;;;4.32;;
25581;SDS011;13462;50.764;4.332;2023-12-20T13:17:29;20.33;;;3.60;;
25581;SDS011;13462;50.764;4.332;2023-12-20T13:19:54;18.35;;;3.22;;
25581;SDS011;13462;50.764;4.332;2023-12-20T13:22:20;15.35;;;4.25;;
25581;SDS011;13462;50.764;4.332;2023-12-20T13:24:46;11.27;;;2.70;;
25581;SDS011;13462;50.764;4.332;2023-12-20T13:27:11;12.18;;;2.95;;
25581;SDS011;13462;50.764;4.332;2023-12-20T13:29:37;13.13;;;2.95;;
25581;SDS011;13462;50.764;4.332;2023-12-20T13:32:03;13.65;;;2.90;;
25581;SDS011;13462;50.764;4.332;2023-12-20T13:34:29;16.92;;;2.63;;
25581;SDS011;13462;50.764;4.332;2023-12-20T13:36:54;16.83;;;3.17;;
25581;SDS011;13462;50.764;4.332;2023-12-20T13:39:21;14.00;;;3.72;;
25581;SDS011;13462;50.764;4.332;2023-12-20T13:41:47;11.25;;;3.13;;
25581;SDS011;13462;50.764;4.332;2023-12-20T13:44:12;11.20;;;2.90;;
25581;SDS011;13462;50.764;4.332;2023-12-20T13:46:38;19.08;;;4.45;;
25581;SDS011;13462;50.764;4.332;2023-12-20T13:49:05;12.30;;;2.95;;
25581;SDS011;13462;50.764;4.332;2023-12-20T13:51:31;20.67;;;3.53;;
25581;SDS011;13462;50.764;4.332;2023-12-20T13:53:56;14.55;;;3.08;;
25581;SDS011;13462;50.764;4.332;2023-12-20T13:56:22;12.90;;;3.00;;
25581;SDS011;13462;50.764;4.332;2023-12-20T13:58:48;13.93;;;3.45;;
25581;SDS011;13462;50.764;4.332;2023-12-20T14:01:15;16.85;;;2.75;;
25581;SDS011;13462;50.764;4.332;2023-12-20T14:03:41;17.02;;;5.07;;
25581;SDS011;13462;50.764;4.332;2023-12-20T14:06:07;18.45;;;3.53;;
25581;SDS011;13462;50.764;4.332;2023-12-20T14:08:32;14.70;;;3.90;;
25581;SDS011;13462;50.764;4.332;2023-12-20T14:10:58;14.43;;;3.35;;
25581;SDS011;13462;50.764;4.332;2023-12-20T14:13:24;16.23;;;3.50;;
25581;SDS011;13462;50.764;4.332;2023-12-20T14:15:49;15.77;;;3.55;;
25581;SDS011;13462;50.764;4.332;2023-12-20T14:18:15;15.93;;;3.00;;
25581;SDS011;13462;50.764;4.332;2023-12-20T14:20:41;17.52;;;3.80;;
25581;SDS011;13462;50.764;4.332;2023-12-20T14:23:07;15.90;;;3.13;;
25581;SDS011;13462;50.764;4.332;2023-12-20T14:25:36;22.08;;;3.40;;
25581;SDS011;13462;50.764;4.332;2023-12-20T14:28:02;14.50;;;4.32;;
25581;SDS011;13462;50.764;4.332;2023-12-20T14:30:29;18.60;;;3.53;;
25581;SDS011;13462;50.764;4.332;2023-12-20T14:32:54;17.88;;;3.95;;
25581;SDS011;13462;50.764;4.332;2023-12-20T14:35:20;17.38;;;4.05;;
25581;SDS011;13462;50.764;4.332;2023-12-20T14:37:45;14.63;;;2.70;;
25581;SDS011;13462;50.764;4.332;2023-12-20T14:40:11;20.80;;;3.65;;